Time;durP1;ratioP1;P1;durP2;ratioP2;P2;SDS_P1;SDS_P2;PMS_P1;PMS_P2;Temp;Humidity;BMP_temperature;BMP_pressure;BME280_temperature;BME280_humidity;BME280_pressure;Samples;Min_cycle;Max_cycle;Signal;HPM_P1;HPM_P2
2022/11/17 00:00:53;;;;;;;;;39.75;33.25;;;;;16.93;70.47;100170.16;146609;615;47012;-82
2022/11/17 00:03:53;;;;;;;;;43.25;33.00;;;;;16.84;70.43;100158.69;146616;591;46020;-76
2022/11/17 00:06:44;;;;;;;;;35.50;32.50;;;;;16.78;72.75;100168.16;146702;576;46022;-79
2022/11/17 00:09:43;;;;;;;;;42.75;34.00;;;;;16.74;71.39;100164.59;146616;590;47016;-79
2022/11/17 00:15:58;;;;;;;;;52.00;42.00;;;;;16.69;71.64;100167.97;146614;615;46016;-78
2022/11/17 00:21:52;;;;;;;;;42.25;35.50;;;;;16.59;73.67;100173.03;146706;565;46014;-84
2022/11/17 00:24:58;;;;;;;;;45.00;36.75;;;;;16.53;72.16;100169.44;146618;570;46016;-82
2022/11/17 00:27:56;;;;;;;;;44.50;35.75;;;;;16.52;71.90;100178.16;146623;711;46010;-78
2022/11/17 00:34:05;;;;;;;;;39.75;32.00;;;;;16.56;71.13;100173.00;146620;585;46014;-80
2022/11/17 00:37:26;;;;;;;;;34.25;31.00;;;;;16.57;71.30;100181.72;146618;615;46012;-75
2022/11/17 00:40:21;;;;;;;;;40.00;34.00;;;;;16.54;71.63;100186.91;146622;589;46020;-77
2022/11/17 00:43:16;;;;;;;;;48.00;39.50;;;;;16.53;72.44;100177.28;146618;566;46016;-77
2022/11/17 00:46:14;;;;;;;;;45.25;37.75;;;;;16.51;72.05;100192.06;146619;620;46020;-76
2022/11/17 00:49:13;;;;;;;;;47.50;38.00;;;;;16.49;73.05;100178.97;146619;604;46916;-77
2022/11/17 00:52:08;;;;;;;;;41.25;34.75;;;;;16.46;73.64;100172.81;146623;654;46020;-76
2022/11/17 00:55:06;;;;;;;;;33.00;29.75;;;;;16.43;73.50;100188.44;146617;584;46016;-78
2022/11/17 00:58:08;;;;;;;;;33.75;29.25;;;;;16.43;74.90;100186.72;146623;565;46010;-76
2022/11/17 01:01:24;;;;;;;;;37.00;32.25;;;;;16.40;74.20;100184.91;146617;599;46012;-77
2022/11/17 01:04:18;;;;;;;;;27.25;23.25;;;;;16.37;74.07;100177.00;146622;611;46014;-77
2022/11/17 01:07:11;;;;;;;;;18.25;16.25;;;;;16.38;73.85;100172.66;146617;593;46016;-76
2022/11/17 01:10:09;;;;;;;;;6.75;6.00;;;;;16.36;72.54;100163.91;146620;641;46020;-76
2022/11/17 01:13:17;;;;;;;;;5.33;4.67;;;;;15.19;71.53;99957.69;146624;648;46016;-76
2022/11/17 01:16:26;;;;;;;;;6.25;5.25;;;;;15.24;71.03;99956.06;146630;569;46010;-76
2022/11/17 01:19:32;;;;;;;;;;;;;;;;;;;;;
2022/11/17 01:22:33;;;;;;;;;4.33;3.00;;;;;16.60;70.41;100159.13;146646;657;45026;-76
2022/11/17 01:25:42;;;;;;;;;6.67;6.00;;;;;16.68;70.08;100158.38;146639;595;46016;-77
2022/11/17 01:28:40;;;;;;;;;4.00;3.00;;;;;16.72;69.16;100162.78;146644;575;45014;-73
2022/11/17 01:31:45;;;;;;;;;5.33;5.00;;;;;16.75;69.42;100160.22;146641;598;45016;-75
2022/11/17 01:34:39;;;;;;;;;7.00;4.00;;;;;16.77;69.47;100163.78;146638;591;46010;-75
2022/11/17 01:37:41;;;;;;;;;5.00;4.25;;;;;16.78;68.81;100155.06;146640;680;45016;-75
2022/11/17 01:40:44;;;;;;;;;6.00;4.00;;;;;16.83;68.26;100164.78;146643;647;45020;-74
2022/11/17 01:43:52;;;;;;;;;3.33;3.00;;;;;16.84;68.25;100144.72;146640;639;46014;-75
2022/11/17 01:46:58;;;;;;;;;5.67;5.00;;;;;16.94;68.44;100157.09;146647;601;45020;-75
2022/11/17 01:50:04;;;;;;;;;5.33;5.33;;;;;16.97;67.73;100151.03;146641;684;45015;-77
2022/11/17 01:53:04;;;;;;;;;6.00;4.00;;;;;16.97;68.59;100149.28;146646;583;45020;-77
2022/11/17 01:56:26;;;;;;;;;9.75;5.75;;;;;16.95;69.59;100153.63;146642;574;45012;-76
2022/11/17 01:59:57;;;;;;;;;7.50;5.75;;;;;16.92;68.39;100157.94;146646;573;45010;-76
2022/11/17 02:03:06;;;;;;;;;9.00;8.50;;;;;16.92;68.33;100157.94;146643;676;45034;-77
2022/11/17 02:06:34;;;;;;;;;7.00;6.67;;;;;16.92;68.24;100158.81;146645;570;45021;-78
2022/11/17 02:09:31;;;;;;;;;4.00;4.00;;;;;16.95;69.17;100164.09;146640;666;46914;-77
2022/11/17 02:12:28;;;;;;;;;5.00;5.00;;;;;16.92;68.99;100157.94;146644;591;45020;-77
2022/11/17 02:15:22;;;;;;;;;6.00;6.00;;;;;16.90;70.03;100160.53;146716;564;45033;-76
2022/11/17 02:18:36;;;;;;;;;5.33;4.00;;;;;16.85;70.39;100164.78;146619;566;46018;-79
2022/11/17 02:22:09;;;;;;;;;6.00;4.67;;;;;16.72;71.97;100162.78;146625;609;46010;-80
2022/11/17 02:25:47;;;;;;;;;6.67;5.00;;;;;15.42;69.19;99950.34;146621;640;46018;-75
2022/11/17 02:29:10;;;;;;;;;7.33;5.67;;;;;16.71;66.63;100156.69;146622;576;46035;-77
2022/11/17 02:32:10;;;;;;;;;7.00;6.50;;;;;15.62;67.72;99952.44;146712;569;45031;-77
2022/11/17 02:35:57;;;;;;;;;5.50;4.00;;;;;16.86;68.07;100153.47;146627;565;46016;-77
2022/11/17 02:39:37;;;;;;;;;6.67;6.00;;;;;16.89;68.12;100150.03;146630;635;46020;-79
2022/11/17 02:46:32;;;;;;;;;8.00;8.00;;;;;16.93;69.61;100152.72;146629;678;47021;-76
2022/11/17 02:49:51;;;;;;;;;6.67;6.00;;;;;15.92;70.40;99980.91;146627;563;46913;-78
2022/11/17 02:52:45;;;;;;;;;8.50;7.75;;;;;16.81;67.46;100144.66;146632;621;46010;-79
2022/11/17 02:55:44;;;;;;;;;5.25;5.25;;;;;16.90;69.05;100151.78;146626;628;46012;-74
2022/11/17 02:58:44;;;;;;;;;9.00;7.00;;;;;16.94;70.99;100151.84;146631;603;46014;-75
2022/11/17 03:02:34;;;;;;;;;8.50;8.00;;;;;15.66;70.06;99936.81;146623;621;46016;-73
2022/11/17 03:06:10;;;;;;;;;10.50;8.25;;;;;16.78;70.55;100142.88;146631;620;46020;-75
2022/11/17 03:10:05;;;;;;;;;8.00;8.00;;;;;16.63;70.88;100119.91;146626;606;46017;-77
2022/11/17 03:13:22;;;;;;;;;8.00;7.50;;;;;15.41;71.38;99926.78;146630;723;46031;-71
2022/11/17 03:17:18;;;;;;;;;;;;;;;;;;;;;
2022/11/17 03:20:54;;;;;;;;;10.50;9.00;;;;;15.22;73.67;99921.19;146633;609;45020;-70
2022/11/17 03:23:54;;;;;;;;;10.00;6.75;;;;;16.33;74.63;100127.22;146625;592;46018;-71
2022/11/17 03:27:09;;;;;;;;;;;;;;;;;;;;;
2022/11/17 03:30:27;;;;;;;;;11.25;10.50;;;;;16.13;76.68;100109.41;146623;611;46018;-72
2022/11/17 03:33:31;;;;;;;;;6.75;5.75;;;;;16.06;76.16;100109.25;146625;587;46020;-72
2022/11/17 03:36:48;;;;;;;;;11.25;10.50;;;;;16.00;76.08;100098.69;146619;658;46016;-72
2022/11/17 03:39:58;;;;;;;;;12.00;10.75;;;;;16.03;75.50;100097.00;146626;564;46010;-72
2022/11/17 03:42:57;;;;;;;;;11.00;9.33;;;;;16.09;73.53;100096.25;146620;569;46915;-72
2022/11/17 03:46:06;;;;;;;;;9.25;9.25;;;;;16.18;73.89;100093.81;146623;565;46021;-73
2022/11/17 03:49:46;;;;;;;;;9.75;9.75;;;;;14.64;73.46;99844.34;146620;609;46012;-72
2022/11/17 03:52:40;;;;;;;;;13.75;13.00;;;;;16.27;74.90;100111.41;146624;606;46010;-72
2022/11/17 03:55:31;;;;;;;;;11.75;9.75;;;;;16.27;77.56;100121.87;146710;566;46014;-74
2022/11/17 03:58:30;;;;;;;;;13.25;12.75;;;;;16.23;77.36;100109.56;146626;618;46012;-73
2022/11/17 04:01:26;;;;;;;;;14.50;11.00;;;;;16.15;75.69;100105.09;146624;699;46024;-72
2022/11/17 04:04:24;;;;;;;;;11.50;11.50;;;;;16.13;75.46;100100.66;146616;727;46016;-72
2022/11/17 04:07:20;;;;;;;;;12.50;12.50;;;;;16.14;75.86;100105.06;146621;690;46020;-75
2022/11/17 04:10:22;;;;;;;;;16.00;12.50;;;;;16.11;74.65;100102.41;146620;682;46003;-74
2022/11/17 04:16:51;;;;;;;;;13.00;13.00;;;;;16.11;74.55;100100.66;146618;599;46016;-73
2022/11/17 04:20:09;;;;;;;;;13.50;12.25;;;;;16.16;74.99;100100.72;146621;614;46020;-72
2022/11/17 04:23:17;;;;;;;;;12.50;11.50;;;;;16.19;74.81;100089.44;146612;578;46016;-72
2022/11/17 04:29:20;;;;;;;;;18.50;18.25;;;;;16.17;77.63;100085.09;146700;576;45023;-74
2022/11/17 04:32:21;;;;;;;;;23.25;20.00;;;;;16.12;76.29;100073.66;146616;570;46016;-74
2022/11/17 04:35:17;;;;;;;;;22.00;20.25;;;;;16.04;76.31;100069.12;146618;585;46011;-74
2022/11/17 04:38:20;;;;;;;;;18.50;18.25;;;;;14.12;78.45;99759.75;146611;662;47012;-77
2022/11/17 04:44:40;;;;;;;;;15.50;13.50;;;;;15.91;79.77;100083.69;146709;566;46015;-76
2022/11/17 04:47:35;;;;;;;;;11.75;11.25;;;;;15.91;79.82;100074.13;146616;604;46018;-75
2022/11/17 04:50:31;;;;;;;;;16.00;14.75;;;;;15.95;79.62;100069.84;146622;589;46029;-72
2022/11/17 04:53:29;;;;;;;;;16.50;16.00;;;;;15.92;79.02;100075.91;146618;651;46033;-74
2022/11/17 04:56:35;;;;;;;;;21.75;16.50;;;;;15.87;78.59;100085.38;146621;597;46020;-75
2022/11/17 04:59:32;;;;;;;;;16.50;13.75;;;;;15.84;78.53;100082.69;146615;573;46017;-76
2022/11/17 05:02:27;;;;;;;;;17.00;16.00;;;;;15.82;78.98;100080.91;146621;607;46010;-74
2022/11/17 05:05:28;;;;;;;;;16.75;13.75;;;;;15.76;78.48;100079.03;146617;687;46016;-74
2022/11/17 05:08:35;;;;;;;;;16.25;15.25;;;;;15.70;78.24;100079.81;146624;566;46010;-75
2022/11/17 05:14:56;;;;;;;;;17.50;14.25;;;;;15.62;78.10;100072.62;146620;605;46013;-75
2022/11/17 05:17:53;;;;;;;;;21.00;17.75;;;;;15.58;79.05;100066.47;146616;576;46016;-74
2022/11/17 05:20:47;;;;;;;;;17.00;14.00;;;;;15.56;78.72;100068.16;146620;646;46012;-75
2022/11/17 05:23:56;;;;;;;;;17.25;14.50;;;;;15.53;77.95;100062.00;146618;571;46017;-75
2022/11/17 05:26:51;;;;;;;;;10.25;9.50;;;;;15.56;78.18;100073.38;146621;585;46030;-74
2022/11/17 05:29:59;;;;;;;;;14.00;12.00;;;;;15.52;75.81;100061.13;146626;566;46012;-76
2022/11/17 05:32:54;;;;;;;;;11.00;10.00;;;;;15.52;75.54;100055.03;146619;618;46020;-76
2022/11/17 05:35:49;;;;;;;;;13.25;12.00;;;;;15.57;75.05;100061.19;146615;589;46012;-76
2022/11/17 05:38:41;;;;;;;;;15.00;14.00;;;;;15.59;75.76;100062.12;146619;577;46020;-76
2022/11/17 05:41:35;;;;;;;;;13.50;13.50;;;;;15.60;75.67;100046.47;146617;626;46016;-77
2022/11/17 05:44:34;;;;;;;;;15.00;12.75;;;;;15.63;74.49;100043.03;146612;653;46021;-77
2022/11/17 05:47:29;;;;;;;;;16.75;14.75;;;;;15.70;75.93;100058.03;146611;648;46016;-77
2022/11/17 05:50:24;;;;;;;;;12.00;12.00;;;;;15.76;75.88;100047.66;146614;604;46010;-74
2022/11/17 05:53:38;;;;;;;;;15.25;13.75;;;;;15.81;75.21;100061.72;146613;577;46016;-74
2022/11/17 05:56:58;;;;;;;;;18.50;16.25;;;;;15.88;75.33;100058.38;146614;577;46020;-73
2022/11/17 06:00:00;;;;;;;;;16.75;16.50;;;;;15.94;75.96;100061.09;146609;586;46017;-77
2022/11/17 06:03:14;;;;;;;;;;;;;;;;;;;;;
2022/11/17 06:06:14;;;;;;;;;20.75;18.25;;;;;16.18;75.70;100072.88;146612;627;46012;-82
2022/11/17 06:09:07;;;;;;;;;18.75;16.50;;;;;16.32;76.07;100070.50;146615;563;46020;-80
2022/11/17 06:12:06;;;;;;;;;20.00;19.50;;;;;16.63;76.82;100069.28;146609;616;46016;-74
2022/11/17 06:15:02;;;;;;;;;20.00;20.00;;;;;17.15;76.17;100072.72;146614;614;46011;-75
2022/11/17 06:18:26;;;;;;;;;23.25;21.50;;;;;17.78;73.44;100063.94;146611;569;46036;-76
2022/11/17 06:21:31;;;;;;;;;22.25;21.25;;;;;18.27;72.30;100075.84;146611;616;46021;-75
2022/11/17 06:24:30;;;;;;;;;39.75;33.50;;;;;18.50;72.36;100069.03;146614;606;46012;-77
2022/11/17 06:27:54;;;;;;;;;44.75;34.25;;;;;18.95;71.78;100069.44;146612;570;46020;-75
2022/11/17 06:30:53;;;;;;;;;33.75;30.00;;;;;19.55;70.55;100073.25;146614;569;46016;-77
2022/11/17 06:34:09;;;;;;;;;44.50;34.25;;;;;19.98;67.66;100063.78;146614;594;46020;-81
2022/11/17 06:37:13;;;;;;;;;36.25;31.00;;;;;20.01;66.10;100066.44;146612;569;46017;-83
2022/11/17 06:40:25;;;;;;;;;37.25;31.00;;;;;19.89;66.56;100090.06;146613;569;46020;-83
2022/11/17 06:43:21;;;;;;;;;43.00;35.50;;;;;19.60;66.90;100079.44;146612;658;46017;-83
2022/11/17 06:46:23;;;;;;;;;;;;;;;;;;;;;
2022/11/17 06:49:27;;;;;;;;;50.00;40.25;;;;;17.74;68.72;99861.97;146613;606;46014;-82
2022/11/17 06:52:23;;;;;;;;;50.50;40.25;;;;;18.76;69.68;100086.81;146614;626;46012;-77
2022/11/17 06:55:20;;;;;;;;;50.75;39.75;;;;;18.54;70.47;100086.59;146614;613;46918;-72
2022/11/17 06:58:15;;;;;;;;;49.00;40.25;;;;;18.42;71.47;100081.22;146617;570;46011;-80
2022/11/17 07:01:12;;;;;;;;;39.00;30.75;;;;;18.28;72.03;100075.84;146609;578;46014;-82
2022/11/17 07:04:07;;;;;;;;;44.75;36.50;;;;;18.16;73.89;100065.22;146615;651;46020;-84
2022/11/17 07:07:00;;;;;;;;;28.75;26.00;;;;;16.93;72.05;99867.28;146613;661;46012;-84
2022/11/17 07:09:52;;;;;;;;;18.25;16.25;;;;;18.03;72.05;100064.22;146613;569;46020;-84
2022/11/17 07:12:44;;;;;;;;;20.00;17.75;;;;;18.03;72.44;100068.59;146611;676;46918;-84
2022/11/17 07:15:36;;;;;;;;;12.25;11.00;;;;;18.04;71.88;100062.47;146613;657;46020;-82
2022/11/17 07:18:29;;;;;;;;;16.00;14.75;;;;;18.07;73.29;100065.13;146611;565;46016;-84
2022/11/17 07:21:21;;;;;;;;;16.75;13.25;;;;;18.08;72.26;100054.66;146614;564;46021;-84
2022/11/17 07:24:14;;;;;;;;;15.25;13.50;;;;;18.11;71.46;100056.44;146610;611;46016;-84
2022/11/17 07:26:52;;;;;;;;;16.75;15.25;;;;;18.13;73.71;100058.22;146703;565;46014;-83
2022/11/17 07:29:48;;;;;;;;;20.00;16.50;;;;;18.16;72.62;100046.84;146606;591;46016;-85
2022/11/17 07:32:56;;;;;;;;;14.50;13.50;;;;;18.05;70.21;100022.28;146609;634;47012;-84
2022/11/17 07:35:54;;;;;;;;;13.75;12.50;;;;;18.12;70.85;100032.81;146607;573;46012;-85
2022/11/17 07:38:57;;;;;;;;;18.00;16.50;;;;;18.12;70.23;100042.44;146610;646;46021;-84
2022/11/17 07:42:05;;;;;;;;;13.75;11.75;;;;;15.98;69.89;99677.72;146607;578;46012;-83
2022/11/17 07:45:00;;;;;;;;;14.00;13.00;;;;;18.15;69.08;100050.34;146608;565;47012;-84
2022/11/17 07:48:07;;;;;;;;;13.50;12.00;;;;;18.15;69.42;100047.72;146604;567;46917;-84
2022/11/17 07:51:03;;;;;;;;;17.25;15.00;;;;;18.14;70.52;100057.34;146612;650;46020;-84
2022/11/17 07:54:04;;;;;;;;;17.25;14.75;;;;;18.14;70.53;100062.59;146606;585;46012;-83
2022/11/17 07:57:13;;;;;;;;;14.00;12.25;;;;;18.06;67.95;100045.88;146610;670;46022;-81
2022/11/17 08:00:15;;;;;;;;;17.75;15.25;;;;;18.13;68.21;100052.97;146606;631;46016;-83
2022/11/17 08:03:10;;;;;;;;;15.00;12.25;;;;;18.17;68.12;100067.00;146608;595;46021;-84
2022/11/17 08:06:08;;;;;;;;;23.50;21.00;;;;;18.18;67.29;100063.50;146605;577;47016;-80
2022/11/17 08:09:09;;;;;;;;;23.00;20.00;;;;;18.19;65.83;100037.28;146612;610;46021;-79
2022/11/17 08:12:23;;;;;;;;;30.50;27.75;;;;;18.27;66.48;100037.34;146608;569;46012;-84
2022/11/17 08:15:29;;;;;;;;;17.50;17.00;;;;;18.32;66.43;100030.41;146613;657;45021;-78
2022/11/17 08:18:23;;;;;;;;;15.50;14.25;;;;;18.36;64.65;100037.44;146607;595;46014;-79
2022/11/17 08:21:30;;;;;;;;;17.75;15.25;;;;;18.34;64.36;100030.41;146611;584;47010;-81
2022/11/17 08:24:35;;;;;;;;;14.50;12.25;;;;;18.45;64.06;100037.50;146609;657;46016;-82
2022/11/17 08:27:29;;;;;;;;;15.00;13.00;;;;;18.49;63.09;100040.16;146615;608;46028;-77
2022/11/17 08:30:34;;;;;;;;;14.75;12.50;;;;;18.54;63.57;100054.22;146611;601;46915;-81
2022/11/17 08:33:34;;;;;;;;;8.75;8.25;;;;;18.65;64.18;100042.91;146614;645;46020;-80
2022/11/17 08:36:32;;;;;;;;;9.67;7.33;;;;;18.70;64.10;100032.44;146619;602;47012;-81
2022/11/17 08:39:34;;;;;;;;;7.00;6.67;;;;;18.74;63.91;100034.25;146623;578;47010;-78
2022/11/17 08:42:29;;;;;;;;;7.00;5.00;;;;;18.78;63.99;100040.41;146617;573;46014;-81
2022/11/17 08:45:29;;;;;;;;;8.25;7.25;;;;;18.81;64.25;100037.78;146621;595;46020;-79
2022/11/17 08:48:39;;;;;;;;;6.67;6.33;;;;;17.80;62.77;99862.06;146619;581;46012;-78
2022/11/17 08:51:48;;;;;;;;;;;;;;;;;;;;;
2022/11/17 08:54:52;;;;;;;;;5.33;5.33;;;;;19.08;64.32;100030.09;146619;578;46017;-80
2022/11/17 08:57:56;;;;;;;;;10.67;9.00;;;;;19.18;63.85;100031.00;146621;567;46020;-80
2022/11/17 09:01:05;;;;;;;;;7.67;7.33;;;;;19.25;61.73;100027.56;146617;564;47014;-80
2022/11/17 09:04:09;;;;;;;;;12.00;9.00;;;;;19.30;63.11;100020.56;146623;580;47010;-82
2022/11/17 09:07:01;;;;;;;;;13.00;10.00;;;;;19.32;63.68;100013.56;146618;660;46017;-83
2022/11/17 09:10:03;;;;;;;;;9.00;8.67;;;;;19.31;61.65;100013.56;146615;576;46010;-81
2022/11/17 09:13:02;;;;;;;;;9.67;7.67;;;;;19.28;61.61;100013.53;146619;563;46915;-81
2022/11/17 09:16:10;;;;;;;;;7.67;7.00;;;;;19.26;63.16;100031.06;146621;611;46021;-83
2022/11/17 09:19:22;;;;;;;;;;;;;;;;;;;;;
2022/11/17 09:22:34;;;;;;;;;13.75;12.50;;;;;19.22;63.73;100029.28;146611;577;47011;-81
2022/11/17 09:25:42;;;;;;;;;12.75;11.00;;;;;19.22;63.81;100031.91;146609;604;47014;-84
2022/11/17 09:28:40;;;;;;;;;19.50;16.75;;;;;19.18;64.16;100022.25;146614;618;46020;-83
2022/11/17 09:31:38;;;;;;;;;15.75;14.00;;;;;19.15;64.28;100026.63;146611;690;46020;-81
2022/11/17 09:34:32;;;;;;;;;18.75;13.75;;;;;19.12;63.50;100017.84;146612;588;46020;-81
2022/11/17 09:37:33;;;;;;;;;12.50;11.25;;;;;19.09;63.44;100036.22;146609;677;46016;-82
2022/11/17 09:40:34;;;;;;;;;10.75;10.75;;;;;19.10;64.73;100028.38;146615;691;46020;-83
2022/11/17 09:44:08;;;;;;;;;13.75;12.75;;;;;19.06;64.87;100010.81;146612;587;46016;-82
2022/11/17 09:47:39;;;;;;;;;13.50;12.50;;;;;19.12;62.51;100030.97;146612;739;47010;-81
2022/11/17 09:50:43;;;;;;;;;9.00;8.00;;;;;19.12;59.58;100018.72;146601;695;48014;-78
2022/11/17 09:54:10;;;;;;;;;17.00;13.50;;;;;19.22;63.37;100009.16;146621;626;46020;-80
2022/11/17 09:57:22;;;;;;;;;7.67;6.67;;;;;19.23;60.53;100008.28;146612;610;46016;-80
2022/11/17 10:00:32;;;;;;;;;5.00;5.00;;;;;18.24;62.71;99835.25;146618;614;47010;-81
2022/11/17 10:03:50;;;;;;;;;10.33;10.00;;;;;19.43;63.10;100015.34;146616;570;46016;-80
2022/11/17 10:06:51;;;;;;;;;9.33;6.00;;;;;18.56;60.89;99843.28;146616;575;46010;-78
2022/11/17 10:09:48;;;;;;;;;8.67;7.00;;;;;19.57;60.46;100001.41;146617;586;46034;-81
2022/11/17 10:12:52;;;;;;;;;5.67;5.00;;;;;19.67;59.49;99997.06;146622;569;46010;-80
2022/11/17 10:16:08;;;;;;;;;5.67;5.67;;;;;19.77;61.53;100005.84;146616;582;46017;-81
2022/11/17 10:19:32;;;;;;;;;6.67;5.00;;;;;19.89;63.59;99991.84;146622;595;46010;-82
2022/11/17 10:22:50;;;;;;;;;15.75;12.25;;;;;19.11;61.39;99798.00;146619;603;46030;-78
2022/11/17 10:26:04;;;;;;;;;8.50;7.50;;;;;20.41;56.11;99978.72;146615;590;46020;-78
2022/11/17 10:29:32;;;;;;;;;4.00;4.00;;;;;20.48;56.26;99985.72;146611;580;46017;-81
2022/11/17 10:32:32;;;;;;;;;8.67;7.00;;;;;20.49;59.83;99992.75;146617;574;46020;-81
2022/11/17 10:36:02;;;;;;;;;;;;;;;;;;;;;
2022/11/17 10:39:06;;;;;;;;;10.00;7.67;;;;;20.47;58.67;99981.38;146616;589;46012;-80
2022/11/17 10:42:21;;;;;;;;;6.67;5.00;;;;;20.45;56.51;99975.22;146613;685;46016;-79
2022/11/17 10:45:26;;;;;;;;;9.00;8.00;;;;;20.45;58.17;99970.81;146616;564;46010;-82
2022/11/17 10:48:59;;;;;;;;;12.00;10.75;;;;;20.42;59.75;99969.94;146611;593;46012;-80
2022/11/17 10:52:07;;;;;;;;;13.25;12.00;;;;;20.51;58.60;99985.72;146601;634;48010;-81
2022/11/17 10:55:38;;;;;;;;;9.33;9.00;;;;;20.51;58.67;99972.56;146607;620;47012;-81
2022/11/17 10:59:09;;;;;;;;;8.00;7.00;;;;;20.52;59.40;99969.06;146619;668;45051;-81
2022/11/17 11:02:23;;;;;;;;;6.67;6.00;;;;;20.58;56.71;99984.00;146612;588;47012;-82
2022/11/17 11:05:34;;;;;;;;;12.67;9.33;;;;;20.54;57.97;99972.59;146616;601;46021;-79
2022/11/17 11:08:43;;;;;;;;;;;;;;;;;;;;;
2022/11/17 11:12:00;;;;;;;;;17.00;13.00;;;;;19.73;56.87;99810.34;146619;613;45022;-79
2022/11/17 11:15:02;;;;;;;;;17.75;11.00;;;;;20.68;56.86;99968.16;146606;647;46916;-81
2022/11/17 11:17:55;;;;;;;;;12.67;10.67;;;;;20.67;56.35;99963.78;146610;579;46020;-80
2022/11/17 11:21:12;;;;;;;;;14.25;12.00;;;;;20.67;57.74;99971.69;146604;581;47013;-79
2022/11/17 11:24:21;;;;;;;;;10.00;8.00;;;;;20.67;57.11;99965.56;146612;577;46020;-81
2022/11/17 11:27:50;;;;;;;;;11.25;10.25;;;;;20.60;58.64;99966.44;146616;632;47012;-79
2022/11/17 11:31:31;;;;;;;;;8.33;7.33;;;;;20.62;56.55;99973.44;146615;586;46020;-79
2022/11/17 11:35:02;;;;;;;;;7.00;6.00;;;;;18.68;57.04;99635.91;146621;596;46014;-79
2022/11/17 11:38:48;;;;;;;;;6.00;6.00;;;;;19.48;55.35;99751.59;146620;621;47010;-80
2022/11/17 11:42:10;;;;;;;;;6.67;6.33;;;;;20.93;55.88;99953.19;146615;602;46016;-78
2022/11/17 11:45:41;;;;;;;;;8.00;6.67;;;;;21.04;57.52;99945.25;146620;618;46021;-78
2022/11/17 11:48:43;;;;;;;;;8.67;6.67;;;;;20.07;56.01;99770.81;146615;577;46016;-80
2022/11/17 11:51:44;;;;;;;;;7.50;7.50;;;;;21.07;56.66;99945.22;146619;638;46021;-79
2022/11/17 11:55:20;;;;;;;;;10.00;8.00;;;;;21.04;55.78;99952.28;146619;607;46012;-77
2022/11/17 11:58:28;;;;;;;;;6.67;5.33;;;;;21.02;55.98;99935.56;146622;575;47011;-78
2022/11/17 12:01:23;;;;;;;;;9.00;7.67;;;;;21.01;55.85;99947.00;146618;582;46016;-78
2022/11/17 12:04:59;;;;;;;;;8.67;8.33;;;;;20.98;57.43;99950.53;146617;614;47010;-80
2022/11/17 12:08:21;;;;;;;;;8.00;6.00;;;;;20.94;58.51;99944.41;146615;606;47012;-76
2022/11/17 12:14:39;;;;;;;;;8.33;7.00;;;;;21.03;57.40;99937.31;146617;620;46017;-81
2022/11/17 12:18:06;;;;;;;;;9.67;7.00;;;;;20.20;57.53;99758.50;146621;587;47010;-80
2022/11/17 12:21:24;;;;;;;;;10.00;9.33;;;;;21.15;57.10;99919.72;146618;597;46017;-80
2022/11/17 12:24:42;;;;;;;;;11.00;7.67;;;;;21.05;57.62;99941.72;146620;609;46020;-85
2022/11/17 12:28:08;;;;;;;;;;;;;;;;;;;;;
2022/11/17 12:31:04;;;;;;;;;11.75;7.75;;;;;20.90;59.20;99937.41;146609;673;46012;-83
2022/11/17 12:34:49;;;;;;;;;17.00;16.25;;;;;20.85;59.20;99944.44;146612;663;46016;-80
2022/11/17 12:37:45;;;;;;;;;13.33;11.00;;;;;20.75;58.91;99943.59;146607;569;47012;-78
2022/11/17 12:40:55;;;;;;;;;8.00;8.00;;;;;20.65;60.28;99935.69;146605;578;47012;-80
2022/11/17 12:44:27;;;;;;;;;10.33;9.33;;;;;20.50;59.83;99926.91;146618;610;46021;-82
2022/11/17 12:47:43;;;;;;;;;18.00;15.50;;;;;20.62;59.09;99936.56;146612;595;46012;-74
2022/11/17 12:51:00;;;;;;;;;8.75;7.25;;;;;20.64;59.92;99939.22;146610;595;46030;-78
2022/11/17 12:54:18;;;;;;;;;17.50;16.25;;;;;20.64;60.04;99931.31;146611;598;46014;-78
2022/11/17 12:57:39;;;;;;;;;8.75;7.75;;;;;20.51;59.39;99927.78;146607;600;46010;-80
2022/11/17 13:00:37;;;;;;;;;22.75;19.25;;;;;20.59;59.86;99936.59;146613;575;46012;-80
2022/11/17 13:03:47;;;;;;;;;27.75;24.00;;;;;20.55;59.73;99933.97;146611;573;46020;-80
2022/11/17 13:06:42;;;;;;;;;6.67;6.67;;;;;20.51;58.45;99938.31;146606;624;46017;-79
2022/11/17 13:09:40;;;;;;;;;6.00;5.67;;;;;20.47;58.65;99948.00;146616;579;47010;-77
2022/11/17 13:12:41;;;;;;;;;10.33;8.00;;;;;20.44;59.14;99948.00;146614;600;46033;-77
2022/11/17 13:15:38;;;;;;;;;8.33;8.33;;;;;20.45;59.71;99951.50;146617;563;46010;-78
2022/11/17 13:19:02;;;;;;;;;13.67;10.00;;;;;20.45;60.17;99954.13;146604;576;47916;-80
2022/11/17 13:22:29;;;;;;;;;27.25;24.75;;;;;20.45;60.47;99947.09;146610;660;46022;-79
2022/11/17 13:25:25;;;;;;;;;12.67;11.00;;;;;20.41;58.82;99944.50;146604;612;46016;-79
2022/11/17 13:28:49;;;;;;;;;11.67;10.67;;;;;20.41;59.60;99939.22;146610;623;46010;-79
2022/11/17 13:31:50;;;;;;;;;11.33;10.00;;;;;20.46;58.59;99954.13;146609;620;46016;-77
2022/11/17 13:34:59;;;;;;;;;11.75;8.25;;;;;20.47;59.52;99952.38;146612;674;46021;-79
2022/11/17 13:38:24;;;;;;;;;10.00;9.00;;;;;20.45;59.95;99948.88;146616;586;46012;-80
2022/11/17 13:41:20;;;;;;;;;10.33;10.33;;;;;20.47;59.30;99957.66;146620;611;46010;-79
2022/11/17 13:44:30;;;;;;;;;10.00;8.00;;;;;20.47;59.37;99963.78;146612;605;46017;-79
2022/11/17 13:47:58;;;;;;;;;7.00;7.00;;;;;20.47;58.74;99952.38;146620;621;46010;-78
2022/11/17 13:51:08;;;;;;;;;9.00;8.00;;;;;20.43;58.19;99955.87;146617;589;47012;-78
2022/11/17 13:54:27;;;;;;;;;12.25;10.25;;;;;19.24;58.42;99757.72;146619;660;46020;-78
2022/11/17 13:57:30;;;;;;;;;10.50;9.00;;;;;20.40;57.47;99961.16;146607;671;47013;-79
2022/11/17 14:00:26;;;;;;;;;11.50;8.75;;;;;20.40;58.08;99954.13;146608;625;46020;-78
2022/11/17 14:03:43;;;;;;;;;15.00;11.33;;;;;20.44;58.88;99957.66;146613;574;46016;-78
2022/11/17 14:07:04;;;;;;;;;12.00;9.00;;;;;20.41;59.07;99958.53;146616;581;46010;-80
2022/11/17 14:10:30;;;;;;;;;13.25;11.25;;;;;20.42;59.73;99960.28;146613;582;46016;-79
2022/11/17 14:13:28;;;;;;;;;38.75;31.50;;;;;20.33;57.48;99951.50;146612;664;47012;-79
2022/11/17 14:16:34;;;;;;;;;23.25;20.75;;;;;20.35;58.31;99960.31;146609;577;46012;-79
2022/11/17 14:19:41;;;;;;;;;27.75;22.75;;;;;20.34;60.12;99979.59;146614;593;46021;-80
2022/11/17 14:23:07;;;;;;;;;;;;;;;;;;;;;
2022/11/17 14:26:25;;;;;;;;;29.50;25.25;;;;;20.25;60.49;99970.84;146612;570;46021;-79
2022/11/17 14:29:29;;;;;;;;;19.00;14.00;;;;;20.22;61.18;99976.09;146607;681;46016;-78
2022/11/17 14:32:27;;;;;;;;;17.75;11.00;;;;;20.20;61.07;99972.59;146603;685;46020;-78
2022/11/17 14:35:23;;;;;;;;;16.33;12.00;;;;;20.15;60.83;99979.59;146604;585;47012;-77
2022/11/17 14:38:38;;;;;;;;;15.75;13.25;;;;;20.03;61.44;99966.41;146607;681;47010;-78
2022/11/17 14:41:40;;;;;;;;;11.33;9.33;;;;;20.05;60.16;99983.97;146605;579;46017;-79
2022/11/17 14:44:50;;;;;;;;;8.25;6.00;;;;;20.03;58.92;99975.22;146615;656;46020;-78
2022/11/17 14:47:42;;;;;;;;;10.33;10.33;;;;;20.01;60.08;99976.97;146610;572;47015;-78
2022/11/17 14:50:41;;;;;;;;;9.67;9.67;;;;;20.00;59.77;99983.09;146611;588;46020;-77
2022/11/17 14:53:54;;;;;;;;;23.25;22.00;;;;;18.90;61.39;99798.81;146612;569;46016;-78
2022/11/17 14:56:50;;;;;;;;;27.25;25.50;;;;;19.91;62.35;99977.84;146610;690;46021;-78
2022/11/17 14:59:48;;;;;;;;;27.25;27.25;;;;;19.91;62.63;99976.97;146604;582;46915;-77
2022/11/17 15:02:41;;;;;;;;;20.50;18.50;;;;;19.82;62.42;99981.31;146603;580;46022;-77
2022/11/17 15:05:39;;;;;;;;;37.75;30.25;;;;;19.83;62.94;99984.81;146609;566;46016;-77
2022/11/17 15:08:42;;;;;;;;;22.25;18.50;;;;;18.73;59.74;99811.91;146609;588;47010;-77